createdAt,value
2022-08-09T00:00:11.245Z,20.64
2022-08-09T00:01:54.566Z,20.65
2022-08-09T00:04:05.900Z,20.62
2022-08-09T00:06:18.958Z,20.60
2022-08-09T00:07:14.366Z,20.60
2022-08-09T00:08:48.648Z,20.56
2022-08-09T00:10:24.761Z,20.54
2022-08-09T00:12:03.757Z,20.53
2022-08-09T00:13:38.535Z,20.52
2022-08-09T00:15:14.605Z,20.46
2022-08-09T00:16:47.364Z,20.46
2022-08-09T00:18:19.303Z,20.46
2022-08-09T00:19:53.342Z,20.44
2022-08-09T00:21:28.249Z,20.43
2022-08-09T00:23:08.283Z,20.42
2022-08-09T00:24:52.156Z,20.40
2022-08-09T00:26:30.048Z,20.40
2022-08-09T00:28:06.791Z,20.38
2022-08-09T00:29:39.764Z,20.34
2022-08-09T00:31:59.548Z,20.32
2022-08-09T00:33:32.389Z,20.31
2022-08-09T00:35:05.648Z,20.28
2022-08-09T00:36:37.518Z,20.23
2022-08-09T00:38:12.636Z,20.21
2022-08-09T00:40:13.334Z,20.17
2022-08-09T00:44:11.903Z,20.17
2022-08-09T00:44:16.715Z,20.17
2022-08-09T00:45:22.276Z,20.16
2022-08-09T00:47:04.938Z,20.12
2022-08-09T00:48:37.981Z,20.11
2022-08-09T00:50:14.449Z,20.08
2022-08-09T00:51:55.918Z,20.08
2022-08-09T00:53:28.149Z,20.07
2022-08-09T00:55:01.451Z,20.06
2022-08-09T00:56:33.448Z,20.03
2022-08-09T00:58:05.969Z,20.01
2022-08-09T00:59:46.346Z,19.99
2022-08-09T01:01:25.086Z,19.98
2022-08-09T01:03:29.205Z,19.97
2022-08-09T01:05:22.159Z,19.93
2022-08-09T01:07:05.078Z,19.87
2022-08-09T01:08:49.517Z,19.85
2022-08-09T01:10:25.790Z,19.87
2022-08-09T01:12:28.407Z,19.86
2022-08-09T01:14:04.600Z,19.80
2022-08-09T01:15:41.122Z,19.80
2022-08-09T01:17:34.429Z,19.79
2022-08-09T01:19:29.059Z,19.78
2022-08-09T01:21:20.168Z,19.75
2022-08-09T01:24:03.160Z,19.72
2022-08-09T01:25:42.208Z,19.66
2022-08-09T01:27:23.943Z,19.62
2022-08-09T01:28:56.773Z,19.60
2022-08-09T01:30:39.997Z,19.59
2022-08-09T01:32:30.118Z,19.56
2022-08-09T01:34:06.288Z,19.54
2022-08-09T01:36:09.838Z,19.52
2022-08-09T01:38:05.727Z,19.51
2022-08-09T01:39:35.691Z,19.50
2022-08-09T01:41:19.462Z,19.47
2022-08-09T01:42:58.366Z,19.45
2022-08-09T01:44:31.826Z,19.43
2022-08-09T01:46:04.856Z,19.42
2022-08-09T01:47:44.775Z,19.42
2022-08-09T01:49:18.499Z,19.39
2022-08-09T01:50:55.200Z,19.39
2022-08-09T01:52:27.797Z,19.39
2022-08-09T01:54:04.202Z,19.37
2022-08-09T01:55:36.250Z,19.38
2022-08-09T01:57:22.749Z,19.36
2022-08-09T01:58:56.745Z,19.32
2022-08-09T02:00:34.707Z,19.32
2022-08-09T02:02:08.980Z,19.32
2022-08-09T02:03:43.097Z,19.32
2022-08-09T02:05:18.985Z,19.25
2022-08-09T02:07:18.370Z,19.26
2022-08-09T02:09:03.227Z,19.22
2022-08-09T02:10:39.742Z,19.21
2022-08-09T02:12:21.266Z,19.17
2022-08-09T02:14:06.418Z,19.15
2022-08-09T02:15:49.428Z,19.14
2022-08-09T02:17:59.163Z,19.12
2022-08-09T02:19:19.982Z,19.11
2022-08-09T02:21:06.471Z,19.08
2022-08-09T02:23:03.612Z,19.02
2022-08-09T02:24:37.375Z,19.03
2022-08-09T02:26:25.079Z,19.03
2022-08-09T02:28:17.783Z,19.04
2022-08-09T02:29:52.194Z,18.98
2022-08-09T02:31:26.303Z,18.95
2022-08-09T02:32:59.601Z,18.97
2022-08-09T02:34:40.238Z,18.97
2022-08-09T02:36:22.267Z,18.94
2022-08-09T02:38:00.999Z,18.91
2022-08-09T02:39:42.591Z,18.91
2022-08-09T02:41:18.739Z,18.94
2022-08-09T02:42:52.212Z,18.87
2022-08-09T02:44:30.415Z,18.85
2022-08-09T02:46:05.078Z,18.84
2022-08-09T02:47:57.624Z,18.82
2022-08-09T02:49:38.754Z,18.80
2022-08-09T02:51:15.481Z,18.76
2022-08-09T02:52:55.145Z,18.78
2022-08-09T02:54:27.849Z,18.78
2022-08-09T02:56:04.450Z,18.75
2022-08-09T02:57:59.696Z,18.77
2022-08-09T02:59:36.490Z,18.76
2022-08-09T03:01:15.185Z,18.73
2022-08-09T03:03:00.477Z,18.72
2022-08-09T03:04:33.873Z,18.70
2022-08-09T03:06:08.846Z,18.69
2022-08-09T03:07:41.477Z,18.65
2022-08-09T03:09:33.691Z,18.63
2022-08-09T03:11:06.627Z,18.62
2022-08-09T03:12:44.021Z,18.61
2022-08-09T03:14:26.544Z,18.57
2022-08-09T03:16:06.048Z,18.55
2022-08-09T03:17:39.595Z,18.55
2022-08-09T03:19:14.385Z,18.52
2022-08-09T03:21:05.711Z,18.52
2022-08-09T03:22:41.799Z,18.52
2022-08-09T03:24:15.379Z,18.52
2022-08-09T03:26:07.346Z,18.54
2022-08-09T03:27:45.157Z,18.53
2022-08-09T03:29:22.897Z,18.53
2022-08-09T03:30:56.033Z,18.53
2022-08-09T03:32:30.822Z,18.52
2022-08-09T03:34:03.467Z,18.53
2022-08-09T03:36:11.615Z,18.51
2022-08-09T03:37:56.567Z,18.45
2022-08-09T03:39:22.420Z,18.44
2022-08-09T03:40:58.333Z,18.42
2022-08-09T03:42:30.683Z,18.44
2022-08-09T03:44:08.796Z,18.43
2022-08-09T03:46:04.514Z,18.38
2022-08-09T03:47:36.716Z,18.36
2022-08-09T03:49:12.602Z,18.37
2022-08-09T03:50:50.704Z,18.37
2022-08-09T03:52:24.035Z,18.38
2022-08-09T03:54:05.477Z,18.38
2022-08-09T03:55:43.057Z,18.40
2022-08-09T03:57:20.170Z,18.34
2022-08-09T03:58:53.152Z,18.37
2022-08-09T04:00:27.052Z,18.36
2022-08-09T04:01:59.535Z,18.33
2022-08-09T04:03:35.476Z,18.35
2022-08-09T04:05:27.444Z,18.32
2022-08-09T04:07:00.016Z,18.31
2022-08-09T04:08:33.138Z,18.31
2022-08-09T04:10:05.949Z,18.27
2022-08-09T04:12:11.880Z,18.26
2022-08-09T04:14:54.020Z,18.23
2022-08-09T04:16:19.290Z,18.22
2022-08-09T04:17:47.378Z,18.20
2022-08-09T04:19:30.098Z,18.17
2022-08-09T04:21:11.474Z,18.17
2022-08-09T04:22:45.576Z,18.14
2022-08-09T04:24:17.521Z,18.16
2022-08-09T04:25:51.662Z,18.14
2022-08-09T04:27:24.173Z,18.12
2022-08-09T04:28:59.766Z,18.11
2022-08-09T04:30:33.283Z,18.12
2022-08-09T04:32:05.483Z,18.10
2022-08-09T04:33:47.578Z,18.08
2022-08-09T04:35:25.167Z,18.08
2022-08-09T04:37:01.504Z,18.11
2022-08-09T04:38:33.439Z,18.11
2022-08-09T04:40:06.948Z,18.13
2022-08-09T04:41:43.855Z,18.11
2022-08-09T04:43:16.940Z,18.09
2022-08-09T04:44:49.068Z,18.08
2022-08-09T04:46:36.548Z,18.07
2022-08-09T04:48:14.072Z,18.07
2022-08-09T04:49:54.644Z,18.07
2022-08-09T04:51:27.201Z,18.06
2022-08-09T04:53:11.696Z,18.05
2022-08-09T04:54:45.999Z,18.05
2022-08-09T04:56:20.053Z,18.06
2022-08-09T04:58:01.467Z,18.03
2022-08-09T04:59:41.200Z,18.05
2022-08-09T05:01:16.324Z,18.03
2022-08-09T05:02:52.673Z,18.05
2022-08-09T05:04:30.543Z,18.05
2022-08-09T05:06:06.745Z,18.02
2022-08-09T05:07:39.305Z,18.02
2022-08-09T05:09:12.445Z,18.04
2022-08-09T05:10:45.661Z,18.03
2022-08-09T05:12:17.828Z,18.02
2022-08-09T05:13:55.021Z,18.04
2022-08-09T05:15:39.392Z,18.03
2022-08-09T05:18:55.093Z,18.01
2022-08-09T05:19:09.352Z,18.03
2022-08-09T05:20:41.207Z,18.03
2022-08-09T05:22:36.017Z,17.98
2022-08-09T05:24:06.762Z,17.97
2022-08-09T05:25:38.804Z,17.98
2022-08-09T05:27:13.659Z,17.99
2022-08-09T05:28:49.100Z,17.97
2022-08-09T05:30:24.091Z,18.01
2022-08-09T05:32:01.882Z,18.01
2022-08-09T05:33:33.713Z,18.01
2022-08-09T05:35:14.211Z,18.02
2022-08-09T05:36:47.495Z,18.04
2022-08-09T05:38:21.684Z,18.05
2022-08-09T05:39:54.261Z,18.06
2022-08-09T05:41:26.529Z,18.06
2022-08-09T05:42:58.477Z,18.08
2022-08-09T05:44:32.421Z,18.10
2022-08-09T05:46:07.838Z,18.13
2022-08-09T05:47:51.757Z,18.13
2022-08-09T05:50:23.497Z,18.12
2022-08-09T05:51:30.102Z,18.12
2022-08-09T05:53:11.619Z,18.15
2022-08-09T05:54:53.717Z,18.16
2022-08-09T05:56:28.335Z,18.18
2022-08-09T05:58:00.135Z,18.19
2022-08-09T05:59:32.233Z,18.18
2022-08-09T06:01:04.091Z,18.18
2022-08-09T06:02:38.682Z,18.22
2022-08-09T06:04:23.657Z,18.25
2022-08-09T06:06:04.539Z,18.27
2022-08-09T06:07:38.001Z,18.31
2022-08-09T06:09:40.719Z,18.32
2022-08-09T06:11:17.360Z,18.33
2022-08-09T06:12:52.106Z,18.35
2022-08-09T06:14:35.273Z,18.37
2022-08-09T06:16:07.403Z,18.40
2022-08-09T06:17:40.621Z,18.43
2022-08-09T06:19:14.921Z,18.47
2022-08-09T06:20:50.056Z,18.51
2022-08-09T06:22:31.215Z,18.57
2022-08-09T06:24:06.256Z,18.59
2022-08-09T06:25:38.947Z,18.67
2022-08-09T06:27:10.828Z,18.73
2022-08-09T06:28:47.597Z,18.76
2022-08-09T06:30:20.178Z,18.78
2022-08-09T06:32:24.662Z,18.82
2022-08-09T06:33:53.078Z,18.85
2022-08-09T06:35:56.572Z,18.86
2022-08-09T06:37:17.219Z,18.90
2022-08-09T06:38:50.190Z,18.96
2022-08-09T06:40:24.226Z,19.01
2022-08-09T06:42:09.468Z,19.05
2022-08-09T06:43:43.199Z,19.10
2022-08-09T06:46:06.665Z,19.18
2022-08-09T06:47:06.849Z,19.29
2022-08-09T06:48:42.961Z,19.38
2022-08-09T06:50:19.074Z,19.42
2022-08-09T06:51:51.243Z,19.53
2022-08-09T06:53:23.111Z,19.57
2022-08-09T06:54:55.331Z,19.61
2022-08-09T06:56:30.600Z,19.69
2022-08-09T06:58:04.624Z,19.76
2022-08-09T07:00:52.796Z,19.82
2022-08-09T07:01:54.654Z,19.91
2022-08-09T07:03:27.806Z,19.98
2022-08-09T07:05:01.157Z,20.07
2022-08-09T07:06:32.991Z,20.16
2022-08-09T07:08:06.372Z,20.25
2022-08-09T07:09:55.343Z,20.34
2022-08-09T07:11:45.423Z,20.39
2022-08-09T07:13:29.525Z,20.47
2022-08-09T07:16:34.927Z,20.57
2022-08-09T07:16:58.399Z,20.66
2022-08-09T07:18:31.330Z,20.70
2022-08-09T07:20:04.162Z,20.79
2022-08-09T07:21:36.577Z,20.89
2022-08-09T07:23:18.318Z,20.94
2022-08-09T07:24:51.981Z,21.00
2022-08-09T07:26:23.915Z,21.06
2022-08-09T07:27:55.887Z,21.12
2022-08-09T07:29:38.102Z,21.17
2022-08-09T07:31:24.908Z,21.29
2022-08-09T07:32:56.856Z,21.34
2022-08-09T07:34:28.719Z,21.45
2022-08-09T07:36:01.606Z,21.56
2022-08-09T07:37:43.390Z,21.64
2022-08-09T07:39:20.200Z,21.77
2022-08-09T07:41:12.955Z,21.82
2022-08-09T07:42:50.101Z,21.92
2022-08-09T07:44:24.153Z,22.00
2022-08-09T07:46:08.523Z,22.10
2022-08-09T07:48:00.436Z,22.18
2022-08-09T07:49:33.640Z,22.24
2022-08-09T07:52:05.878Z,22.40
2022-08-09T07:53:16.771Z,22.53
2022-08-09T07:55:08.697Z,22.65
2022-08-09T07:56:49.230Z,22.74
2022-08-09T07:58:26.143Z,22.80
2022-08-09T08:00:03.368Z,22.88
2022-08-09T08:01:52.923Z,23.00
2022-08-09T08:03:26.817Z,23.08
2022-08-09T08:04:59.022Z,23.20
2022-08-09T08:06:32.673Z,23.23
2022-08-09T08:09:00.595Z,23.29
2022-08-09T08:10:08.100Z,23.35
2022-08-09T08:12:11.967Z,23.39
2022-08-09T08:13:39.988Z,23.49
2022-08-09T08:15:26.438Z,23.58
2022-08-09T08:17:09.115Z,23.64
2022-08-09T08:18:44.162Z,23.80
2022-08-09T08:20:19.555Z,23.94
2022-08-09T08:22:01.585Z,24.04
2022-08-09T08:23:34.918Z,24.13
2022-08-09T08:25:13.235Z,24.21
2022-08-09T08:26:55.834Z,24.30
2022-08-09T08:28:32.951Z,24.44
2022-08-09T08:30:06.306Z,24.53
2022-08-09T08:31:39.387Z,24.65
2022-08-09T08:33:40.719Z,24.78
2022-08-09T08:35:22.833Z,24.88
2022-08-09T08:36:54.916Z,24.98
2022-08-09T08:38:28.179Z,25.10
2022-08-09T08:40:00.204Z,25.23
2022-08-09T08:41:50.243Z,25.34
2022-08-09T08:43:27.140Z,25.48
2022-08-09T08:45:13.623Z,25.64
2022-08-09T08:47:02.794Z,25.72
2022-08-09T08:48:39.975Z,25.83
2022-08-09T08:50:23.872Z,25.89
2022-08-09T08:52:00.225Z,25.96
2022-08-09T08:53:36.912Z,26.10
2022-08-09T08:55:10.155Z,26.21
2022-08-09T08:56:42.104Z,26.37
2022-08-09T08:58:14.131Z,26.52
2022-08-09T08:59:53.942Z,26.59
2022-08-09T09:01:44.901Z,26.63
2022-08-09T09:03:25.308Z,26.74
2022-08-09T09:05:10.012Z,26.87
2022-08-09T09:06:44.208Z,27.06
2022-08-09T09:08:29.723Z,27.19
2022-08-09T09:10:09.138Z,27.24
2022-08-09T09:11:42.789Z,27.27
2022-08-09T09:13:16.590Z,27.39
2022-08-09T09:14:52.059Z,27.43
2022-08-09T09:16:30.981Z,27.53
2022-08-09T09:18:03.741Z,27.80
2022-08-09T09:19:41.514Z,27.95
2022-08-09T09:21:13.800Z,28.00
2022-08-09T09:22:53.028Z,28.00
2022-08-09T09:24:30.323Z,28.10
2022-08-09T09:26:12.388Z,28.17
2022-08-09T09:28:03.719Z,28.18
2022-08-09T09:32:06.633Z,28.53
2022-08-09T09:33:44.394Z,28.57
2022-08-09T09:35:17.746Z,28.56
2022-08-09T09:36:54.190Z,28.63
2022-08-09T09:38:58.251Z,28.79
2022-08-09T09:40:43.934Z,28.73
2022-08-09T09:42:25.985Z,28.57
2022-08-09T09:44:12.760Z,28.70
2022-08-09T09:46:41.792Z,28.84
2022-08-09T09:47:56.220Z,29.04
2022-08-09T09:49:49.858Z,29.20
2022-08-09T09:51:26.140Z,29.28
2022-08-09T09:53:20.765Z,29.38
2022-08-09T09:55:01.549Z,29.58
2022-08-09T09:56:37.515Z,29.75
2022-08-09T09:58:49.500Z,29.82
2022-08-09T10:00:26.634Z,29.98
2022-08-09T10:02:00.322Z,30.16
2022-08-09T10:03:44.292Z,30.20
2022-08-09T10:05:16.668Z,29.98
2022-08-09T10:07:26.703Z,30.08
2022-08-09T10:09:21.886Z,30.17
2022-08-09T10:10:55.019Z,30.43
2022-08-09T10:12:43.579Z,30.58
2022-08-09T10:14:33.069Z,30.68
2022-08-09T10:16:54.378Z,30.73
2022-08-09T10:18:10.821Z,30.83
2022-08-09T10:19:43.603Z,30.92
2022-08-09T10:21:17.773Z,30.90
2022-08-09T10:22:58.483Z,30.86
2022-08-09T10:24:35.641Z,30.89
2022-08-09T10:26:10.583Z,30.71
2022-08-09T10:27:57.357Z,30.86
2022-08-09T10:30:23.579Z,30.92
2022-08-09T10:34:04.937Z,31.27
2022-08-09T10:35:10.236Z,31.34
2022-08-09T10:36:43.148Z,31.48
2022-08-09T10:38:54.620Z,31.34
2022-08-09T10:40:33.801Z,31.51
2022-08-09T10:42:06.221Z,31.47
2022-08-09T10:43:46.912Z,31.47
2022-08-09T10:45:21.737Z,31.55
2022-08-09T10:47:41.660Z,31.73
2022-08-09T10:49:12.751Z,31.82
2022-08-09T10:51:09.575Z,31.92
2022-08-09T10:53:05.381Z,31.89
2022-08-09T10:54:42.631Z,31.93
2022-08-09T10:56:25.638Z,31.79
2022-08-09T10:58:00.465Z,31.74
2022-08-09T10:59:43.431Z,31.62
2022-08-09T11:03:06.724Z,31.66
2022-08-09T11:03:27.816Z,31.81
2022-08-09T11:05:25.470Z,31.94
2022-08-09T11:07:01.758Z,32.00
2022-08-09T11:08:47.127Z,31.77
2022-08-09T11:10:38.397Z,31.67
2022-08-09T11:12:13.287Z,31.76
2022-08-09T11:13:50.806Z,31.80
2022-08-09T11:15:33.829Z,31.96
2022-08-09T11:17:15.214Z,32.07
2022-08-09T11:19:07.909Z,32.23
2022-08-09T11:20:49.838Z,32.26
2022-08-09T11:22:45.468Z,32.32
2022-08-09T11:24:18.561Z,32.33
2022-08-09T11:25:54.807Z,32.33
2022-08-09T11:28:04.332Z,32.29
2022-08-09T11:30:05.238Z,32.20
2022-08-09T11:31:49.413Z,32.20
2022-08-09T11:33:46.272Z,32.07
2022-08-09T11:35:35.000Z,31.79
2022-08-09T11:37:41.106Z,31.86
2022-08-09T11:39:15.168Z,31.98
2022-08-09T11:40:48.806Z,32.11
2022-08-09T11:42:41.563Z,32.16
2022-08-09T11:44:13.614Z,32.27
2022-08-09T11:45:59.775Z,32.42
2022-08-09T11:48:06.504Z,32.28
2022-08-09T11:50:54.358Z,32.37
2022-08-09T11:53:03.109Z,32.43
2022-08-09T11:54:27.754Z,32.45
2022-08-09T11:56:41.788Z,32.46
2022-08-09T11:58:19.560Z,32.32
2022-08-09T11:59:52.572Z,32.31
2022-08-09T12:02:17.326Z,32.36
2022-08-09T12:03:55.908Z,32.30
2022-08-09T12:05:23.501Z,32.31
2022-08-09T12:06:56.458Z,32.16
2022-08-09T12:08:29.840Z,32.26
2022-08-09T12:10:02.496Z,32.32
2022-08-09T12:11:37.824Z,32.34
2022-08-09T12:14:10.511Z,32.44
2022-08-09T12:15:50.232Z,32.49
2022-08-09T12:17:27.711Z,32.62
2022-08-09T12:19:09.628Z,32.70
2022-08-09T12:20:43.869Z,32.77
2022-08-09T12:22:20.387Z,32.76
2022-08-09T12:24:06.321Z,32.80
2022-08-09T12:25:50.156Z,32.70
2022-08-09T12:29:15.304Z,32.56
2022-08-09T12:29:29.763Z,32.76
2022-08-09T12:31:58.278Z,32.76
2022-08-09T12:33:19.525Z,32.89
2022-08-09T12:35:02.928Z,32.91
2022-08-09T12:36:49.617Z,32.87
2022-08-09T12:38:37.460Z,32.81
2022-08-09T12:40:11.875Z,32.98
2022-08-09T12:41:44.180Z,32.72
2022-08-09T12:43:18.871Z,32.78
2022-08-09T12:44:55.409Z,32.90
2022-08-09T12:46:27.537Z,33.06
2022-08-09T12:47:59.433Z,33.08
2022-08-09T12:49:36.585Z,33.02
2022-08-09T12:51:08.972Z,33.01
2022-08-09T12:52:58.428Z,33.04
2022-08-09T12:55:03.460Z,33.05
2022-08-09T12:56:51.345Z,33.22
2022-08-09T12:58:27.742Z,33.26
2022-08-09T13:00:14.728Z,33.33
2022-08-09T13:01:58.841Z,33.28
2022-08-09T13:03:53.579Z,33.28
2022-08-09T13:05:51.521Z,33.28
2022-08-09T13:07:50.074Z,33.33
2022-08-09T13:09:32.617Z,33.40
2022-08-09T13:11:13.376Z,33.52
2022-08-09T13:13:09.371Z,33.49
2022-08-09T13:14:48.830Z,33.49
2022-08-09T13:16:23.559Z,33.44
2022-08-09T13:18:06.071Z,33.29
2022-08-09T13:20:10.366Z,33.24
2022-08-09T13:22:36.784Z,33.21
2022-08-09T13:24:16.310Z,33.15
2022-08-09T13:25:52.906Z,33.20
2022-08-09T13:27:30.670Z,33.20
2022-08-09T13:29:17.902Z,33.19
2022-08-09T13:32:14.248Z,33.20
2022-08-09T13:32:57.543Z,33.31
2022-08-09T13:34:38.394Z,33.31
2022-08-09T13:36:39.174Z,33.24
2022-08-09T13:38:03.869Z,33.24
2022-08-09T13:41:46.859Z,33.20
2022-08-09T13:41:58.793Z,33.17
2022-08-09T13:43:35.782Z,33.24
2022-08-09T13:45:13.086Z,33.24
2022-08-09T13:47:19.391Z,33.26
2022-08-09T13:48:38.415Z,33.28
2022-08-09T13:50:30.142Z,33.29
2022-08-09T13:52:04.174Z,33.29
2022-08-09T13:53:44.681Z,33.21
2022-08-09T13:55:17.825Z,33.23
2022-08-09T13:56:53.015Z,33.35
2022-08-09T13:58:26.085Z,33.29
2022-08-09T14:00:00.254Z,33.42
2022-08-09T14:01:56.007Z,33.47
2022-08-09T14:04:01.185Z,33.51
2022-08-09T14:06:01.247Z,33.45
2022-08-09T14:07:17.631Z,33.48
2022-08-09T14:08:49.726Z,33.32
2022-08-09T14:10:37.545Z,33.22
2022-08-09T14:12:15.755Z,33.42
2022-08-09T14:14:23.195Z,33.47
2022-08-09T14:16:09.049Z,33.44
2022-08-09T14:18:16.628Z,33.35
2022-08-09T14:19:25.805Z,33.35
2022-08-09T14:21:02.312Z,33.35
2022-08-09T14:22:34.861Z,33.31
2022-08-09T14:24:18.280Z,33.15
2022-08-09T14:25:56.110Z,33.08
2022-08-09T14:27:57.076Z,33.10
2022-08-09T14:30:36.005Z,33.15
2022-08-09T14:31:23.522Z,33.17
2022-08-09T14:33:11.490Z,33.18
2022-08-09T14:34:43.593Z,33.25
2022-08-09T14:36:20.668Z,33.15
2022-08-09T14:38:01.896Z,33.08
2022-08-09T14:39:46.609Z,33.11
2022-08-09T14:41:34.630Z,33.22
2022-08-09T14:43:18.567Z,33.22
2022-08-09T14:44:59.912Z,33.11
2022-08-09T14:46:57.639Z,33.15
2022-08-09T14:48:26.693Z,33.17
2022-08-09T14:50:01.862Z,33.24
2022-08-09T14:51:41.894Z,33.16
2022-08-09T14:53:15.179Z,32.97
2022-08-09T14:54:48.825Z,33.01
2022-08-09T14:56:26.909Z,33.04
2022-08-09T14:57:59.402Z,33.03
2022-08-09T14:59:31.156Z,33.05
2022-08-09T15:01:03.116Z,33.02
2022-08-09T15:02:36.098Z,33.00
2022-08-09T15:04:09.762Z,33.02
2022-08-09T15:05:52.529Z,33.12
2022-08-09T15:07:27.331Z,33.02
2022-08-09T15:09:02.995Z,33.04
2022-08-09T15:10:35.877Z,32.99
2022-08-09T15:12:11.623Z,32.96
2022-08-09T15:13:48.304Z,32.94
2022-08-09T15:15:28.848Z,32.88
2022-08-09T15:17:00.677Z,32.83
2022-08-09T15:18:36.588Z,32.81
2022-08-09T15:20:11.892Z,32.72
2022-08-09T15:22:00.526Z,32.58
2022-08-09T15:24:09.178Z,32.62
2022-08-09T15:25:38.935Z,32.53
2022-08-09T15:27:12.577Z,32.54
2022-08-09T15:28:54.777Z,32.56
2022-08-09T15:30:58.542Z,32.67
2022-08-09T15:32:39.058Z,32.66
2022-08-09T15:34:31.632Z,32.56
2022-08-09T15:36:05.846Z,32.55
2022-08-09T15:37:57.461Z,32.46
2022-08-09T15:39:34.429Z,32.48
2022-08-09T15:41:09.721Z,32.43
2022-08-09T15:42:45.524Z,32.34
2022-08-09T15:44:19.658Z,32.40
2022-08-09T15:46:28.256Z,32.38
2022-08-09T15:48:01.916Z,32.41
2022-08-09T15:49:38.478Z,32.35
2022-08-09T15:52:01.925Z,32.26
2022-08-09T15:54:07.040Z,32.34
2022-08-09T15:55:20.037Z,32.33
2022-08-09T15:56:53.036Z,32.23
2022-08-09T15:58:27.169Z,32.26
2022-08-09T15:59:59.292Z,32.26
2022-08-09T16:01:35.597Z,32.12
2022-08-09T16:03:07.765Z,32.23
2022-08-09T16:04:42.718Z,32.21
2022-08-09T16:06:27.319Z,32.22
2022-08-09T16:08:06.591Z,32.21
2022-08-09T16:09:57.898Z,32.14
2022-08-09T16:11:36.862Z,32.20
2022-08-09T16:13:18.720Z,32.19
2022-08-09T16:15:04.326Z,32.08
2022-08-09T16:16:57.604Z,32.10
2022-08-09T16:18:30.832Z,32.05
2022-08-09T16:20:09.049Z,32.03
2022-08-09T16:21:41.814Z,32.04
2022-08-09T16:23:21.795Z,32.05
2022-08-09T16:24:57.034Z,32.08
2022-08-09T16:26:34.201Z,32.00
2022-08-09T16:28:12.071Z,31.87
2022-08-09T16:29:49.948Z,31.93
2022-08-09T16:32:10.174Z,31.94
2022-08-09T16:33:16.308Z,31.79
2022-08-09T16:34:55.672Z,31.71
2022-08-09T16:36:30.562Z,31.78
2022-08-09T16:38:03.502Z,31.74
2022-08-09T16:39:39.965Z,31.77
2022-08-09T16:42:02.180Z,31.68
2022-08-09T16:43:18.665Z,31.53
2022-08-09T16:44:52.939Z,31.59
2022-08-09T16:46:27.550Z,31.64
2022-08-09T16:48:38.160Z,31.43
2022-08-09T16:50:32.335Z,31.45
2022-08-09T16:51:43.954Z,31.41
2022-08-09T16:53:33.962Z,31.34
2022-08-09T16:55:08.073Z,31.33
2022-08-09T16:56:49.485Z,31.24
2022-08-09T16:58:22.176Z,31.17
2022-08-09T16:59:57.530Z,31.12
2022-08-09T17:01:33.845Z,31.13
2022-08-09T17:03:06.026Z,31.04
2022-08-09T17:04:37.985Z,31.04
2022-08-09T17:06:31.875Z,31.01
2022-08-09T17:08:43.677Z,30.96
2022-08-09T17:09:53.683Z,30.83
2022-08-09T17:11:41.554Z,30.75
2022-08-09T17:13:14.665Z,30.68
2022-08-09T17:14:48.618Z,30.65
2022-08-09T17:16:22.477Z,30.58
2022-08-09T17:18:00.322Z,30.59
2022-08-09T17:20:12.670Z,30.42
2022-08-09T17:21:29.070Z,30.41
2022-08-09T17:23:01.032Z,30.38
2022-08-09T17:24:34.384Z,30.38
2022-08-09T17:26:06.216Z,30.38
2022-08-09T17:27:48.688Z,30.25
2022-08-09T17:29:21.589Z,30.23
2022-08-09T17:30:55.807Z,30.12
2022-08-09T17:32:37.710Z,30.03
2022-08-09T17:34:20.277Z,30.02
2022-08-09T17:36:01.790Z,30.00
2022-08-09T17:38:11.282Z,29.92
2022-08-09T17:39:25.735Z,29.80
2022-08-09T17:41:17.537Z,29.74
2022-08-09T17:42:49.603Z,29.69
2022-08-09T17:44:38.830Z,29.66
2022-08-09T17:46:19.574Z,29.58
2022-08-09T17:48:06.315Z,29.50
2022-08-09T17:49:50.697Z,29.49
2022-08-09T17:51:30.203Z,29.49
2022-08-09T17:53:02.190Z,29.48
2022-08-09T17:54:36.658Z,29.46
2022-08-09T17:56:09.555Z,29.42
2022-08-09T17:58:05.416Z,29.38
2022-08-09T17:59:38.462Z,29.28
2022-08-09T18:01:15.348Z,29.33
2022-08-09T18:02:58.371Z,29.26
2022-08-09T18:04:30.684Z,29.25
2022-08-09T18:06:02.539Z,29.18
2022-08-09T18:07:35.328Z,29.08
2022-08-09T18:09:07.783Z,29.02
2022-08-09T18:10:46.007Z,29.01
2022-08-09T18:12:30.087Z,28.98
2022-08-09T18:14:15.656Z,28.88
2022-08-09T18:16:05.164Z,28.84
2022-08-09T18:18:01.770Z,28.74
2022-08-09T18:20:56.772Z,28.67
2022-08-09T18:21:24.209Z,28.68
2022-08-09T18:22:56.408Z,28.67
2022-08-09T18:24:28.427Z,28.64
2022-08-09T18:26:03.177Z,28.58
2022-08-09T18:28:04.106Z,28.56
2022-08-09T18:30:34.699Z,28.53
2022-08-09T18:31:32.121Z,28.44
2022-08-09T18:33:13.477Z,28.41
2022-08-09T18:34:48.159Z,28.37
2022-08-09T18:36:32.212Z,28.29
2022-08-09T18:38:06.646Z,28.23
2022-08-09T18:39:48.469Z,28.22
2022-08-09T18:41:20.543Z,28.11
2022-08-09T18:42:59.431Z,28.08
2022-08-09T18:44:32.007Z,28.10
2022-08-09T18:46:48.424Z,28.06
2022-08-09T18:47:58.686Z,27.93
2022-08-09T18:49:31.987Z,27.87
2022-08-09T18:51:13.202Z,27.86
2022-08-09T18:52:46.705Z,27.84
2022-08-09T18:54:29.607Z,27.77
2022-08-09T18:56:05.206Z,27.71
2022-08-09T18:57:44.584Z,27.69
2022-08-09T18:59:16.940Z,27.68
2022-08-09T19:00:53.138Z,27.64
2022-08-09T19:02:32.684Z,27.61
2022-08-09T19:04:08.927Z,27.54
2022-08-09T19:06:02.120Z,27.51
2022-08-09T19:07:35.558Z,27.49
2022-08-09T19:09:20.333Z,27.45
2022-08-09T19:11:06.288Z,27.39
2022-08-09T19:12:42.365Z,27.37
2022-08-09T19:14:29.402Z,27.34
2022-08-09T19:16:01.508Z,27.29
2022-08-09T19:17:52.568Z,27.26
2022-08-09T19:19:28.080Z,27.20
2022-08-09T19:21:00.794Z,27.15
2022-08-09T19:22:34.506Z,27.13
2022-08-09T19:24:32.071Z,27.08
2022-08-09T19:26:02.076Z,27.03
2022-08-09T19:27:37.394Z,27.00
2022-08-09T19:29:18.014Z,26.99
2022-08-09T19:30:52.504Z,26.95
2022-08-09T19:32:31.407Z,26.94
2022-08-09T19:34:03.907Z,26.89
2022-08-09T19:35:58.393Z,26.85
2022-08-09T19:37:29.291Z,26.81
2022-08-09T19:39:13.164Z,26.78
2022-08-09T19:40:49.929Z,26.77
2022-08-09T19:42:24.087Z,26.75
2022-08-09T19:44:03.016Z,26.71
2022-08-09T19:45:38.974Z,26.67
2022-08-09T19:47:12.425Z,26.67
2022-08-09T19:49:00.179Z,26.62
2022-08-09T19:50:49.285Z,26.61
2022-08-09T19:52:23.759Z,26.57
2022-08-09T19:53:56.608Z,26.55
2022-08-09T19:55:39.130Z,26.52
2022-08-09T19:57:25.777Z,26.51
2022-08-09T19:59:39.956Z,26.44
2022-08-09T20:00:51.414Z,26.41
2022-08-09T20:04:07.316Z,26.34
2022-08-09T20:04:26.332Z,26.29
2022-08-09T20:06:22.408Z,26.27
2022-08-09T20:07:58.742Z,26.22
2022-08-09T20:09:43.706Z,26.19
2022-08-09T20:11:17.639Z,26.18
2022-08-09T20:12:52.021Z,26.13
2022-08-09T20:14:24.033Z,26.07
2022-08-09T20:16:37.770Z,26.03
2022-08-09T20:17:54.248Z,25.97
2022-08-09T20:19:48.965Z,25.98
2022-08-09T20:21:18.654Z,25.92
2022-08-09T20:22:56.408Z,25.92
2022-08-09T20:24:33.970Z,25.91
2022-08-09T20:26:06.786Z,25.90
2022-08-09T20:27:42.095Z,25.89
2022-08-09T20:29:18.950Z,25.82
2022-08-09T20:30:53.800Z,25.79
2022-08-09T20:32:31.175Z,25.73
2022-08-09T20:34:12.194Z,25.64
2022-08-09T20:35:51.643Z,25.57
2022-08-09T20:37:24.958Z,25.58
2022-08-09T20:39:28.753Z,25.57
2022-08-09T20:40:49.105Z,25.54
2022-08-09T20:42:21.333Z,25.54
2022-08-09T20:43:58.455Z,25.46
2022-08-09T20:46:00.901Z,25.42
2022-08-09T20:47:45.252Z,25.39
2022-08-09T20:49:16.162Z,25.34
2022-08-09T20:50:51.126Z,25.33
2022-08-09T20:52:27.751Z,25.32
2022-08-09T20:53:59.617Z,25.28
2022-08-09T20:55:47.560Z,25.27
2022-08-09T20:57:32.201Z,25.27
2022-08-09T20:59:04.411Z,25.24
2022-08-09T21:00:36.762Z,25.23
2022-08-09T21:02:18.646Z,25.20
2022-08-09T21:05:49.337Z,25.17
2022-08-09T21:05:52.070Z,25.12
2022-08-09T21:07:40.197Z,25.08
2022-08-09T21:09:13.768Z,25.08
2022-08-09T21:10:53.129Z,25.04
2022-08-09T21:14:19.773Z,24.90
2022-08-09T21:15:52.006Z,24.88
2022-08-09T21:18:11.682Z,24.85
2022-08-09T21:20:17.098Z,24.82
2022-08-09T21:21:17.202Z,24.80
2022-08-09T21:22:54.243Z,24.74
2022-08-09T21:24:28.931Z,24.68
2022-08-09T21:26:04.397Z,24.67
2022-08-09T21:27:51.245Z,24.64
2022-08-09T21:29:24.698Z,24.63
2022-08-09T21:30:56.589Z,24.61
2022-08-09T21:32:33.664Z,24.57
2022-08-09T21:34:10.547Z,24.53
2022-08-09T21:35:51.104Z,24.48
2022-08-09T21:37:23.377Z,24.42
2022-08-09T21:38:57.846Z,24.41
2022-08-09T21:40:33.481Z,24.38
2022-08-09T21:42:10.016Z,24.36
2022-08-09T21:43:56.598Z,24.35
2022-08-09T21:45:30.929Z,24.33